Time;durP1;ratioP1;P1;durP2;ratioP2;P2;SDS_P1;SDS_P2;PMS_P1;PMS_P2;Temp;Humidity;BMP_temperature;BMP_pressure;BME280_temperature;BME280_humidity;BME280_pressure;Samples;Min_cycle;Max_cycle;Signal;HPM_P1;HPM_P2
2024/01/27 00:02:40;;;;;;;9.18;0.80;;;;;;;7.90;55.50;102154.72;10365902;28;20519;-67
2024/01/27 00:07:42;;;;;;;4.45;0.50;;;;;;;7.79;55.38;102155.47;10358945;28;20065;-67
2024/01/27 00:12:43;;;;;;;7.78;1.35;;;;;;;7.82;55.79;102151.72;10362302;28;20043;-68
2024/01/27 00:17:44;;;;;;;4.93;0.77;;;;;;;7.80;55.55;102156.31;10369677;28;20042;-67
2024/01/27 00:22:47;;;;;;;7.25;0.80;;;;;;;7.59;55.75;102158.78;10344266;28;20052;-67
2024/01/27 00:27:48;;;;;;;6.05;0.57;;;;;;;7.44;56.41;102166.06;10370748;28;20431;-67
2024/01/27 00:32:50;;;;;;;8.88;0.90;;;;;;;7.30;56.69;102162.56;10358053;28;20145;-66
2024/01/27 00:37:52;;;;;;;7.18;0.70;;;;;;;7.21;57.11;102159.69;10365079;28;20060;-66
2024/01/27 00:42:54;;;;;;;8.05;0.90;;;;;;;7.12;56.90;102161.22;10371157;28;20057;-66
2024/01/27 00:47:56;;;;;;;7.18;1.40;;;;;;;7.07;57.01;102171.38;10365761;28;20053;-66
2024/01/27 00:52:58;;;;;;;4.20;0.80;;;;;;;7.05;57.54;102168.81;10365861;28;20041;-66
2024/01/27 00:57:59;;;;;;;7.20;0.47;;;;;;;7.06;57.34;102167.00;10363760;28;20050;-66
2024/01/27 01:03:01;;;;;;;5.63;1.95;;;;;;;7.11;57.29;102179.09;10364841;28;20060;-65
2024/01/27 01:08:03;;;;;;;3.70;0.50;;;;;;;7.07;57.15;102182.94;10363247;28;20049;-66
2024/01/27 01:13:04;;;;;;;7.65;0.88;;;;;;;6.89;57.70;102185.09;10364635;28;20101;-66
2024/01/27 01:18:06;;;;;;;5.93;0.60;;;;;;;6.81;58.43;102183.88;10363006;28;20524;-65
2024/01/27 01:23:07;;;;;;;4.38;0.80;;;;;;;6.78;58.77;102182.28;10365776;28;20136;-65
2024/01/27 01:28:09;;;;;;;7.15;0.50;;;;;;;6.75;58.73;102193.19;10361202;28;20092;-65
2024/01/27 01:33:11;;;;;;;6.10;0.93;;;;;;;6.74;58.00;102197.69;10366858;28;20050;-66
2024/01/27 01:38:13;;;;;;;6.18;0.90;;;;;;;6.70;58.28;102214.88;10363733;28;20058;-66
2024/01/27 01:43:14;;;;;;;6.07;1.02;;;;;;;6.67;59.06;102219.56;10367670;28;20076;-66
2024/01/27 01:48:16;;;;;;;6.78;0.70;;;;;;;6.65;59.08;102221.50;10367865;28;20424;-66
2024/01/27 01:53:18;;;;;;;5.47;0.65;;;;;;;6.51;59.26;102228.63;10370491;28;20436;-65
2024/01/27 01:58:19;;;;;;;5.78;0.73;;;;;;;6.52;58.94;102217.00;10364344;28;20555;-66
2024/01/27 02:03:21;;;;;;;6.95;0.80;;;;;;;6.49;59.46;102232.38;10367709;28;20045;-66
2024/01/27 02:08:22;;;;;;;11.23;0.80;;;;;;;6.42;59.57;102237.28;10369399;28;20512;-66
2024/01/27 02:13:24;;;;;;;8.55;0.95;;;;;;;6.37;59.42;102236.72;10368719;28;20159;-66
2024/01/27 02:18:26;;;;;;;4.22;0.50;;;;;;;6.33;59.98;102227.19;10367646;28;20042;-66
2024/01/27 02:23:28;;;;;;;7.95;0.73;;;;;;;6.34;59.86;102221.75;10368189;28;20041;-66
2024/01/27 02:28:33;;;;;;;7.75;1.30;;;;;;;6.20;59.65;102224.50;10374351;28;20050;-65
2024/01/27 02:33:34;;;;;;;5.40;0.85;;;;;;;6.15;59.76;102235.44;10373361;28;20046;-65
2024/01/27 02:38:36;;;;;;;8.15;0.77;;;;;;;6.06;60.14;102235.19;10363951;28;20623;-65
2024/01/27 02:43:38;;;;;;;13.80;1.63;;;;;;;5.91;59.54;102247.72;10374112;28;20041;-65
2024/01/27 02:48:44;;;;;;;11.70;0.70;;;;;;;5.73;60.02;102239.91;10375748;28;20088;-66
2024/01/27 02:53:46;;;;;;;6.45;0.88;;;;;;;5.56;60.43;102256.97;10365765;28;20052;-65
2024/01/27 02:58:48;;;;;;;6.70;0.85;;;;;;;5.36;60.45;102257.38;10374558;28;20088;-65
2024/01/27 03:03:49;;;;;;;9.05;1.33;;;;;;;5.17;61.39;102252.31;10370079;28;20112;-65
2024/01/27 03:08:51;;;;;;;3.50;0.77;;;;;;;5.08;60.75;102253.72;10375766;28;20061;-65
2024/01/27 03:13:53;;;;;;;12.52;0.82;;;;;;;4.97;60.96;102266.84;10364569;28;20056;-66
2024/01/27 03:18:55;;;;;;;8.02;1.42;;;;;;;4.84;61.50;102265.84;10366959;28;20050;-65
2024/01/27 03:23:57;;;;;;;11.25;2.80;;;;;;;4.74;61.90;102269.06;10361846;28;20054;-65
2024/01/27 03:28:59;;;;;;;7.13;1.75;;;;;;;4.62;61.99;102272.47;10365852;28;20050;-65
2024/01/27 03:34:01;;;;;;;5.93;1.20;;;;;;;4.52;62.30;102268.59;10372731;28;20052;-65
2024/01/27 03:39:03;;;;;;;5.47;1.35;;;;;;;4.43;62.42;102267.34;10365652;28;20172;-65
2024/01/27 03:44:05;;;;;;;15.85;2.10;;;;;;;4.35;62.84;102266.94;10366249;28;20051;-65
2024/01/27 03:49:06;;;;;;;7.60;1.20;;;;;;;4.33;63.07;102264.34;10363488;28;20042;-65
2024/01/27 03:54:08;;;;;;;9.80;1.27;;;;;;;4.29;62.64;102268.13;10374099;28;20092;-65
2024/01/27 03:59:11;;;;;;;7.97;0.85;;;;;;;4.32;63.61;102269.75;10372630;28;20124;-65
2024/01/27 04:04:13;;;;;;;4.95;0.65;;;;;;;4.34;63.29;102270.53;10370034;28;20064;-65
2024/01/27 04:09:15;;;;;;;6.28;1.65;;;;;;;4.32;63.56;102278.59;10364277;28;20049;-65
2024/01/27 04:14:17;;;;;;;7.38;1.27;;;;;;;4.15;63.98;102289.38;10368465;28;20050;-65
2024/01/27 04:19:19;;;;;;;7.93;1.55;;;;;;;4.10;64.01;102288.75;10367167;28;20037;-65
2024/01/27 04:24:20;;;;;;;3.78;1.00;;;;;;;4.03;63.99;102292.69;10360303;28;20050;-65
2024/01/27 04:29:22;;;;;;;9.90;1.10;;;;;;;3.94;64.34;102291.41;10367619;28;20042;-65
2024/01/27 04:34:23;;;;;;;6.97;1.38;;;;;;;3.89;63.91;102290.78;10362727;28;20057;-65
2024/01/27 04:39:24;;;;;;;9.90;0.77;;;;;;;3.81;64.19;102296.56;10373749;28;20128;-66
2024/01/27 04:44:26;;;;;;;5.10;1.13;;;;;;;3.70;64.09;102307.75;10356137;28;20057;-65
2024/01/27 04:49:28;;;;;;;3.20;0.80;;;;;;;3.62;64.39;102307.31;10367487;28;20037;-66
2024/01/27 04:54:30;;;;;;;10.13;0.98;;;;;;;3.56;64.88;102320.94;10367863;28;20142;-66
2024/01/27 04:59:32;;;;;;;11.02;1.42;;;;;;;3.52;64.72;102314.06;10360575;28;20129;-66
2024/01/27 05:04:34;;;;;;;3.50;0.80;;;;;;;3.52;65.07;102312.28;10365571;28;20104;-65
2024/01/27 05:09:36;;;;;;;6.57;1.40;;;;;;;3.53;65.25;102313.97;10370093;28;20081;-65
2024/01/27 05:14:43;;;;;;;5.22;0.90;;;;;;;3.49;65.32;102328.38;10359214;28;20524;-65
2024/01/27 05:19:44;;;;;;;6.78;0.90;;;;;;;3.49;65.46;102330.19;10366716;28;20042;-65
2024/01/27 05:24:46;;;;;;;11.32;0.90;;;;;;;3.45;65.54;102328.63;10354268;28;20042;-66
2024/01/27 05:29:48;;;;;;;12.20;1.73;;;;;;;3.44;65.41;102346.38;10363525;28;20045;-65
2024/01/27 05:34:49;;;;;;;5.85;1.98;;;;;;;3.42;65.71;102350.91;10364588;28;20046;-65
2024/01/27 05:39:51;;;;;;;7.25;0.68;;;;;;;3.42;65.79;102347.41;10367726;28;20053;-65
2024/01/27 05:44:52;;;;;;;2.25;0.75;;;;;;;3.36;65.75;102348.59;10360046;28;20536;-66
2024/01/27 05:49:54;;;;;;;10.77;1.95;;;;;;;3.30;65.64;102354.22;10373084;28;20049;-66
2024/01/27 05:54:55;;;;;;;8.27;1.30;;;;;;;3.25;65.95;102356.25;10370118;28;20129;-65
2024/01/27 05:59:57;;;;;;;6.22;1.20;;;;;;;3.17;66.42;102360.13;10374680;28;20052;-66
2024/01/27 06:04:58;;;;;;;9.15;1.23;;;;;;;3.14;66.67;102370.06;10369552;28;20037;-65
2024/01/27 06:10:00;;;;;;;7.82;1.98;;;;;;;3.17;66.89;102372.56;10374704;28;20045;-66
2024/01/27 06:15:01;;;;;;;7.82;1.38;;;;;;;3.19;67.09;102370.69;10366513;28;20046;-66
2024/01/27 06:20:04;;;;;;;7.50;1.40;;;;;;;3.22;66.92;102362.59;10376732;28;20096;-66
2024/01/27 06:25:07;;;;;;;10.75;1.55;;;;;;;3.25;66.86;102377.50;10372259;28;20046;-66
2024/01/27 06:30:10;;;;;;;11.88;1.45;;;;;;;3.23;66.54;102379.38;10366728;28;20042;-66
2024/01/27 06:35:12;;;;;;;10.63;1.65;;;;;;;3.21;66.85;102382.09;10369598;28;20089;-66
2024/01/27 06:40:14;;;;;;;14.93;1.73;;;;;;;3.16;67.01;102392.13;10370356;28;20045;-65
2024/01/27 06:45:16;;;;;;;11.25;1.42;;;;;;;3.11;67.15;102394.16;10377723;28;20046;-66
2024/01/27 06:50:17;;;;;;;5.03;1.50;;;;;;;3.04;67.03;102395.38;10375431;28;20112;-66
2024/01/27 06:55:19;;;;;;;7.03;1.23;;;;;;;3.06;67.60;102405.00;10366063;28;20058;-66
2024/01/27 07:00:20;;;;;;;8.73;1.27;;;;;;;3.08;67.38;102392.50;10366374;28;20090;-66
2024/01/27 07:05:22;;;;;;;8.85;1.50;;;;;;;3.09;67.51;102402.19;10373825;28;20037;-66
2024/01/27 07:10:23;;;;;;;10.60;1.58;;;;;;;3.20;67.04;102400.78;10372194;28;20132;-66
2024/01/27 07:15:25;;;;;;;6.70;1.65;;;;;;;3.21;66.84;102389.22;10362762;28;20052;-66
2024/01/27 07:20:28;;;;;;;12.13;2.63;;;;;;;3.23;66.77;102390.00;10376661;28;20053;-65
2024/01/27 07:25:30;;;;;;;6.65;1.80;;;;;;;3.23;66.73;102397.97;10369342;28;20172;-65
2024/01/27 07:30:32;;;;;;;7.55;1.75;;;;;;;3.15;66.95;102401.88;10365054;28;20508;-67
2024/01/27 07:35:34;;;;;;;11.30;1.65;;;;;;;3.05;67.24;102397.13;10368504;28;20045;-67
2024/01/27 07:40:35;;;;;;;6.72;2.22;;;;;;;2.95;67.79;102396.72;10366191;28;20069;-66
2024/01/27 07:45:37;;;;;;;8.48;1.65;;;;;;;3.00;67.13;102389.34;10367849;28;20049;-66
2024/01/27 07:50:38;;;;;;;11.70;2.20;;;;;;;3.05;67.13;102400.63;10365961;28;20042;-65
2024/01/27 07:55:40;;;;;;;13.43;2.53;;;;;;;2.95;67.89;102405.53;10363471;28;20045;-67
2024/01/27 08:00:41;;;;;;;12.20;3.20;;;;;;;2.95;67.83;102402.88;10372910;28;20033;-67
2024/01/27 08:05:43;;;;;;;10.73;3.20;;;;;;;3.04;68.08;102406.00;10373806;28;20061;-67
2024/01/27 08:10:45;;;;;;;8.13;2.13;;;;;;;3.20;67.42;102416.72;10359461;28;20440;-66
2024/01/27 08:15:46;;;;;;;14.38;2.53;;;;;;;3.32;67.62;102430.28;10360347;28;20140;-67
2024/01/27 08:20:48;;;;;;;11.45;2.78;;;;;;;3.40;67.64;102429.88;10367753;28;20046;-67
2024/01/27 08:25:52;;;;;;;22.77;5.93;;;;;;;3.44;67.68;102426.13;10372888;28;20050;-67
2024/01/27 08:30:54;;;;;;;10.45;2.20;;;;;;;3.51;67.95;102434.66;10360451;28;20061;-67
2024/01/27 08:35:55;;;;;;;8.77;2.28;;;;;;;3.56;67.84;102437.94;10364638;28;20049;-66
2024/01/27 08:40:57;;;;;;;9.82;2.40;;;;;;;3.64;68.09;102443.72;10362858;28;20058;-67
2024/01/27 08:46:00;;;;;;;9.40;2.15;;;;;;;3.69;68.28;102439.03;10361680;28;20064;-67
2024/01/27 08:51:01;;;;;;;11.00;2.35;;;;;;;3.87;68.62;102439.00;10371029;28;20046;-67
2024/01/27 08:56:03;;;;;;;7.70;2.42;;;;;;;3.97;68.05;102448.22;10365791;28;20100;-67
2024/01/27 09:01:07;;;;;;;11.80;2.97;;;;;;;4.12;68.07;102451.88;10359208;28;20061;-67
2024/01/27 09:06:09;;;;;;;7.35;1.95;;;;;;;4.17;68.03;102464.00;10357413;28;20042;-67
2024/01/27 09:11:11;;;;;;;9.90;2.67;;;;;;;4.28;68.40;102459.88;10370799;28;20041;-67
2024/01/27 09:16:14;;;;;;;14.32;2.08;;;;;;;4.34;68.73;102472.84;10363166;28;20179;-67
2024/01/27 09:21:20;;;;;;;9.40;1.95;;;;;;;4.38;68.67;102469.09;10368948;28;20103;-67
2024/01/27 09:26:22;;;;;;;8.63;1.63;;;;;;;4.52;68.73;102471.88;10371747;28;20062;-67
2024/01/27 09:31:25;;;;;;;4.55;1.45;;;;;;;4.62;68.14;102469.56;10380924;28;20056;-67
2024/01/27 09:36:26;;;;;;;10.77;1.85;;;;;;;4.75;68.29;102470.59;10364549;28;20057;-67
2024/01/27 09:41:32;;;;;;;4.88;2.17;;;;;;;5.00;67.50;102474.56;10364620;28;20041;-66
2024/01/27 09:46:33;;;;;;;8.00;2.28;;;;;;;4.96;67.88;102484.53;10383023;28;20076;-64
2024/01/27 09:51:35;;;;;;;8.35;2.30;;;;;;;5.00;68.20;102487.03;10372815;28;20049;-70
2024/01/27 09:56:37;;;;;;;4.00;1.42;;;;;;;5.05;67.93;102493.78;10367550;28;20053;-68
2024/01/27 10:01:39;;;;;;;13.05;2.15;;;;;;;5.23;67.72;102489.22;10371824;28;20046;-70
2024/01/27 10:06:41;;;;;;;10.85;2.33;;;;;;;5.41;67.24;102483.75;10375434;28;20459;-68
2024/01/27 10:11:46;;;;;;;11.10;3.50;;;;;;;5.44;67.62;102473.78;10371004;28;20038;-70
2024/01/27 10:16:47;;;;;;;9.55;2.88;;;;;;;5.56;66.75;102473.06;10363264;28;20053;-70
2024/01/27 10:22:00;;;;;;;13.23;2.40;;;;;;;5.77;66.42;102470.06;10374275;28;20054;-70
2024/01/27 10:27:03;;;;;;;12.80;2.58;;;;;;;5.88;66.60;102466.75;10372735;28;20504;-70
2024/01/27 10:32:09;;;;;;;8.52;1.65;;;;;;;6.04;66.33;102464.91;10377009;28;20049;-71
2024/01/27 10:37:13;;;;;;;7.38;2.00;;;;;;;6.24;65.92;102455.66;10362905;28;20041;-71
2024/01/27 10:42:15;;;;;;;8.90;1.63;;;;;;;6.25;66.19;102452.03;10376731;28;20145;-71
2024/01/27 10:47:20;;;;;;;8.95;3.08;;;;;;;6.37;65.48;102437.03;10362580;28;20125;-71
2024/01/27 10:52:27;;;;;;;6.82;2.15;;;;;;;6.60;65.21;102432.06;10372201;28;20509;-67
2024/01/27 10:57:30;;;;;;;12.95;2.65;;;;;;;6.80;64.71;102414.72;10373272;28;20041;-71
2024/01/27 11:02:34;;;;;;;5.68;1.70;;;;;;;6.92;65.00;102400.56;10371952;28;20050;-71
2024/01/27 11:07:38;;;;;;;10.82;1.70;;;;;;;7.01;64.81;102401.75;10363456;28;20133;-72
2024/01/27 11:12:40;;;;;;;7.80;1.80;;;;;;;7.13;64.28;102393.78;10369187;28;20038;-72
2024/01/27 11:17:42;;;;;;;6.25;2.28;;;;;;;7.28;64.23;102386.53;10375995;28;20049;-70
2024/01/27 11:22:44;;;;;;;10.00;3.08;;;;;;;7.35;63.94;102376.28;10373765;28;20436;-71
2024/01/27 11:27:46;;;;;;;11.38;2.80;;;;;;;7.48;64.15;102363.75;10371929;28;20049;-71
2024/01/27 11:32:49;;;;;;;7.43;1.67;;;;;;;7.65;63.76;102369.78;10389031;28;20049;-64
2024/01/27 11:37:50;;;;;;;11.82;2.45;;;;;;;7.82;63.07;102379.28;10378311;28;20065;-63
2024/01/27 11:42:56;;;;;;;14.38;1.77;;;;;;;7.90;63.24;102395.69;10378801;28;20108;-62
2024/01/27 11:48:00;;;;;;;9.80;1.63;;;;;;;7.99;62.79;102384.31;10377308;28;20046;-63
2024/01/27 11:53:02;;;;;;;11.23;1.83;;;;;;;8.17;62.21;102386.66;10375709;28;20081;-64
2024/01/27 11:58:04;;;;;;;10.05;1.80;;;;;;;8.18;61.97;102393.72;10380635;28;20079;-64
2024/01/27 12:03:06;;;;;;;6.25;1.40;;;;;;;8.33;61.81;102389.94;10384206;28;20096;-65
2024/01/27 12:08:08;;;;;;;4.60;1.17;;;;;;;8.45;61.38;102389.09;10375666;28;20509;-66
2024/01/27 12:13:10;;;;;;;10.48;2.38;;;;;;;8.63;61.07;102386.00;10382351;28;20056;-63
2024/01/27 12:18:13;;;;;;;4.20;1.50;;;;;;;8.82;60.88;102404.28;10371824;28;20066;-71
2024/01/27 12:23:14;;;;;;;6.10;2.03;;;;;;;8.95;60.58;102390.84;10374056;28;20056;-69
2024/01/27 12:28:18;;;;;;;11.48;1.60;;;;;;;9.04;59.64;102379.38;10369612;28;20052;-68
2024/01/27 12:33:24;;;;;;;8.00;1.25;;;;;;;9.08;59.61;102380.88;10370336;28;20194;-69
2024/01/27 12:38:27;;;;;;;20.33;2.45;;;;;;;9.20;59.21;102374.59;10373295;28;20049;-69
2024/01/27 12:43:28;;;;;;;7.40;1.23;;;;;;;9.33;58.82;102372.66;10368081;28;20479;-69
2024/01/27 12:48:31;;;;;;;16.50;1.30;;;;;;;9.46;58.38;102371.75;10364827;28;20116;-69
2024/01/27 12:53:32;;;;;;;9.60;1.27;;;;;;;9.50;58.30;102360.63;10366220;28;20042;-69
2024/01/27 12:58:35;;;;;;;11.07;1.08;;;;;;;9.54;57.55;102358.56;10375511;28;20783;-69
2024/01/27 13:03:37;;;;;;;7.45;0.80;;;;;;;9.56;57.31;102358.44;10367425;28;20133;-69
2024/01/27 13:08:44;;;;;;;1.98;0.40;;;;;;;9.63;56.68;102347.09;10358880;28;20034;-69
2024/01/27 13:13:46;;;;;;;7.95;1.02;;;;;;;9.63;56.40;102351.63;10375865;28;20046;-69
2024/01/27 13:18:51;;;;;;;4.43;0.68;;;;;;;9.68;56.39;102331.47;10364798;28;20050;-70
2024/01/27 13:23:52;;;;;;;8.30;1.17;;;;;;;9.77;56.00;102345.16;10367158;28;20042;-70
2024/01/27 13:28:56;;;;;;;4.75;0.45;;;;;;;9.73;55.44;102345.41;10368665;28;20053;-69
2024/01/27 13:33:57;;;;;;;5.88;1.27;;;;;;;9.70;55.33;102340.28;10359395;28;20091;-70
2024/01/27 13:38:59;;;;;;;4.20;0.45;;;;;;;9.66;54.97;102340.66;10376048;28;20049;-65
2024/01/27 13:44:01;;;;;;;9.43;0.90;;;;;;;9.66;54.75;102337.97;10375806;28;20054;-68
2024/01/27 13:49:03;;;;;;;5.10;0.77;;;;;;;9.79;54.33;102327.94;10367012;28;20081;-67
2024/01/27 13:54:09;;;;;;;5.10;0.45;;;;;;;9.85;54.13;102329.28;10359648;28;20492;-67
2024/01/27 13:59:11;;;;;;;4.85;0.40;;;;;;;9.75;53.94;102315.72;10356757;28;20381;-67
2024/01/27 14:04:12;;;;;;;9.27;0.60;;;;;;;9.66;53.58;102311.94;10360128;28;20440;-68
2024/01/27 14:09:14;;;;;;;5.35;1.25;;;;;;;9.61;52.96;102308.75;10372631;28;20061;-67
2024/01/27 14:14:16;;;;;;;10.23;2.00;;;;;;;9.65;53.37;102315.59;10362425;28;20113;-68
2024/01/27 14:19:18;;;;;;;5.88;0.85;;;;;;;9.75;53.04;102314.88;10364318;28;20053;-67
2024/01/27 14:24:20;;;;;;;3.35;1.13;;;;;;;9.69;52.82;102310.84;10377673;28;20050;-67
2024/01/27 14:29:21;;;;;;;7.65;0.90;;;;;;;9.70;52.98;102307.19;10373339;28;20157;-67
2024/01/27 14:34:23;;;;;;;7.85;0.85;;;;;;;9.69;53.01;102311.69;10377533;28;20409;-67
2024/01/27 14:39:25;;;;;;;9.07;0.75;;;;;;;9.64;52.97;102302.31;10375622;28;20062;-67
2024/01/27 14:44:26;;;;;;;8.55;0.80;;;;;;;9.58;52.91;102314.41;10372744;28;20049;-70
2024/01/27 14:49:28;;;;;;;4.28;0.85;;;;;;;9.52;52.72;102314.88;10377683;28;20067;-69
2024/01/27 14:54:29;;;;;;;5.13;0.60;;;;;;;9.42;52.61;102314.75;10369251;28;20077;-70
2024/01/27 14:59:31;;;;;;;7.90;0.93;;;;;;;9.42;52.55;102313.88;10375764;28;20137;-70
2024/01/27 15:04:33;;;;;;;8.43;0.90;;;;;;;9.40;52.34;102313.13;10371851;28;20400;-63
2024/01/27 15:09:34;;;;;;;7.85;0.77;;;;;;;9.29;52.68;102303.25;10378210;28;20060;-65
2024/01/27 15:14:36;;;;;;;8.52;0.45;;;;;;;9.27;52.56;102299.84;10383238;28;20038;-63
2024/01/27 15:19:38;;;;;;;3.20;0.35;;;;;;;9.21;52.55;102301.16;10373997;28;20068;-63
2024/01/27 15:24:41;;;;;;;7.60;0.80;;;;;;;9.21;52.26;102300.31;10369107;28;20388;-66
2024/01/27 15:29:43;;;;;;;6.72;0.50;;;;;;;9.22;52.10;102294.84;10372557;28;20108;-66
2024/01/27 15:34:44;;;;;;;8.52;0.68;;;;;;;9.19;52.38;102294.22;10373165;28;20069;-64
2024/01/27 15:39:46;;;;;;;5.78;0.50;;;;;;;9.15;52.02;102295.41;10374745;28;20053;-65
2024/01/27 15:44:48;;;;;;;1.73;0.45;;;;;;;9.07;52.42;102290.66;10376713;28;20130;-64
2024/01/27 15:49:56;;;;;;;8.38;1.30;;;;;;;8.95;52.86;102295.13;10380570;28;20395;-64
2024/01/27 15:54:58;;;;;;;4.90;0.73;;;;;;;8.81;52.92;102285.44;10371023;28;20049;-67
2024/01/27 16:00:00;;;;;;;9.27;0.60;;;;;;;8.56;53.33;102291.78;10369945;28;20046;-67
2024/01/27 16:05:02;;;;;;;4.70;1.20;;;;;;;8.36;53.74;102309.31;10369717;28;20128;-67
2024/01/27 16:10:04;;;;;;;6.03;1.10;;;;;;;8.24;53.40;102312.91;10358879;28;20405;-67
2024/01/27 16:15:05;;;;;;;4.57;0.65;;;;;;;8.14;53.38;102318.94;10366820;28;20114;-65
2024/01/27 16:20:08;;;;;;;7.07;0.77;;;;;;;7.96;53.79;102328.31;10376165;28;20061;-64
2024/01/27 16:25:09;;;;;;;16.33;3.00;;;;;;;7.75;54.65;102320.81;10378996;28;20058;-65
2024/01/27 16:30:11;;;;;;;10.32;1.95;;;;;;;7.56;54.86;102323.06;10369129;28;20046;-62
2024/01/27 16:35:13;;;;;;;13.70;2.97;;;;;;;7.38;55.17;102329.72;10377586;28;20092;-64
2024/01/27 16:40:16;;;;;;;10.65;2.15;;;;;;;7.20;55.60;102326.50;10376669;28;20731;-62
2024/01/27 16:45:17;;;;;;;10.38;2.50;;;;;;;7.03;56.02;102324.97;10376421;28;20057;-63
2024/01/27 16:50:19;;;;;;;13.38;3.33;;;;;;;6.88;55.82;102329.53;10377500;28;20050;-63
2024/01/27 16:55:21;;;;;;;10.35;2.88;;;;;;;6.73;56.04;102329.59;10362564;28;20117;-64
2024/01/27 17:00:24;;;;;;;10.20;4.50;;;;;;;6.58;57.33;102338.63;10380116;28;20061;-63
2024/01/27 17:05:26;;;;;;;10.98;4.35;;;;;;;6.47;56.66;102341.13;10374845;28;20045;-62
2024/01/27 17:10:27;;;;;;;14.68;5.80;;;;;;;6.31;57.49;102341.28;10378414;28;20041;-62
2024/01/27 17:15:30;;;;;;;7.63;4.28;;;;;;;6.19;57.41;102339.41;10383581;28;20126;-65
2024/01/27 17:20:31;;;;;;;14.38;5.78;;;;;;;6.05;57.78;102351.81;10378332;28;20684;-65
2024/01/27 17:25:33;;;;;;;21.30;8.57;;;;;;;5.81;58.12;102348.84;10382286;28;20064;-64
2024/01/27 17:30:34;;;;;;;17.13;6.15;;;;;;;5.59;59.19;102354.66;10378469;28;20053;-65
2024/01/27 17:35:36;;;;;;;11.65;3.70;;;;;;;5.55;59.65;102363.78;10376458;28;20048;-70
2024/01/27 17:40:38;;;;;;;22.15;7.80;;;;;;;5.46;59.29;102364.34;10368802;28;20400;-70
2024/01/27 17:45:40;;;;;;;15.32;3.40;;;;;;;5.33;59.63;102362.41;10374136;28;20148;-72
2024/01/27 17:50:42;;;;;;;11.13;3.17;;;;;;;5.20;60.08;102355.25;10371887;28;20099;-70
2024/01/27 17:55:44;;;;;;;23.60;7.35;;;;;;;5.18;60.18;102362.47;10374444;28;20132;-67
2024/01/27 18:00:45;;;;;;;26.15;6.50;;;;;;;5.13;60.19;102360.94;10370188;28;20061;-68
2024/01/27 18:05:49;;;;;;;12.20;3.65;;;;;;;4.96;60.34;102367.25;10373879;28;20046;-70
2024/01/27 18:10:51;;;;;;;12.55;3.80;;;;;;;4.86;60.71;102370.53;10370382;28;20088;-69
2024/01/27 18:15:53;;;;;;;11.57;3.35;;;;;;;4.69;61.93;102380.34;10363078;28;20393;-69
2024/01/27 18:20:54;;;;;;;14.43;3.30;;;;;;;4.72;61.09;102376.66;10372971;28;20107;-67
2024/01/27 18:25:56;;;;;;;23.55;8.18;;;;;;;4.68;61.69;102376.00;10376481;28;20503;-68
2024/01/27 18:30:57;;;;;;;17.95;7.22;;;;;;;4.57;61.89;102371.25;10369341;28;20423;-68
2024/01/27 18:35:58;;;;;;;23.27;8.63;;;;;;;4.40;61.63;102366.03;10370788;28;20627;-69
2024/01/27 18:41:01;;;;;;;16.52;5.10;;;;;;;4.20;62.24;102369.78;10368054;28;20046;-69
2024/01/27 18:46:03;;;;;;;20.63;6.57;;;;;;;4.12;62.50;102372.88;10369300;28;20056;-71
2024/01/27 18:51:05;;;;;;;13.93;6.07;;;;;;;4.10;62.92;102374.75;10373024;28;20109;-68
2024/01/27 18:56:08;;;;;;;27.48;10.15;;;;;;;4.00;63.10;102378.88;10374550;28;20500;-68
2024/01/27 19:01:11;;;;;;;29.90;9.60;;;;;;;4.00;62.59;102376.22;10376470;28;20057;-69
2024/01/27 19:06:13;;;;;;;21.55;8.93;;;;;;;3.89;63.04;102381.25;10365594;28;20046;-69
2024/01/27 19:11:14;;;;;;;15.25;6.68;;;;;;;3.82;63.24;102378.06;10375627;28;20046;-65
2024/01/27 19:16:16;;;;;;;19.95;8.27;;;;;;;3.78;63.37;102374.69;10402708;28;20042;-65
2024/01/27 19:21:17;;;;;;;18.15;7.43;;;;;;;3.70;62.79;102370.75;10385304;28;20096;-63
2024/01/27 19:26:19;;;;;;;26.77;9.60;;;;;;;3.58;62.93;102365.13;10375375;28;20111;-69
2024/01/27 19:31:20;;;;;;;23.08;7.68;;;;;;;3.53;63.04;102364.50;10368128;28;20202;-69
2024/01/27 19:36:23;;;;;;;25.15;7.57;;;;;;;3.35;63.68;102368.97;10365484;28;20389;-71
2024/01/27 19:41:25;;;;;;;13.95;6.78;;;;;;;3.36;63.68;102375.16;10369328;28;20199;-71
2024/01/27 19:46:27;;;;;;;29.05;9.88;;;;;;;3.32;64.10;102377.13;10369796;28;20606;-72
2024/01/27 19:51:29;;;;;;;24.08;10.20;;;;;;;3.17;64.39;102376.09;10372605;28;20054;-71
2024/01/27 19:56:30;;;;;;;17.17;6.55;;;;;;;3.03;64.72;102378.59;10375153;28;20054;-71
2024/01/27 20:01:32;;;;;;;26.13;7.55;;;;;;;3.13;64.74;102371.00;10348854;28;20038;-70
2024/01/27 20:06:36;;;;;;;16.73;7.43;;;;;;;3.16;64.82;102360.25;10359457;28;20039;-71
2024/01/27 20:11:37;;;;;;;15.20;7.13;;;;;;;3.11;64.38;102359.59;10361649;28;20050;-72
2024/01/27 20:16:39;;;;;;;15.77;8.13;;;;;;;3.06;64.36;102358.97;10363218;28;20037;-68
2024/01/27 20:21:41;;;;;;;16.88;6.40;;;;;;;2.97;64.70;102355.00;10376540;28;20042;-67
2024/01/27 20:26:43;;;;;;;14.00;5.60;;;;;;;2.93;64.30;102356.94;10369222;28;20056;-67
2024/01/27 20:31:45;;;;;;;19.90;6.53;;;;;;;2.87;64.64;102353.72;10368636;28;20037;-67
2024/01/27 20:36:47;;;;;;;11.32;4.85;;;;;;;2.69;65.31;102352.84;10370404;28;20417;-67
2024/01/27 20:41:49;;;;;;;14.40;6.68;;;;;;;2.70;64.92;102351.91;10366823;28;20129;-67
2024/01/27 20:46:51;;;;;;;13.30;4.28;;;;;;;2.54;65.29;102360.59;10361974;28;20046;-64
2024/01/27 20:51:53;;;;;;;16.48;5.30;;;;;;;2.56;65.42;102357.88;10382767;28;20305;-63
2024/01/27 20:56:54;;;;;;;14.23;4.57;;;;;;;2.56;65.17;102358.72;10383748;28;20052;-66
2024/01/27 21:02:01;;;;;;;16.88;4.55;;;;;;;2.54;64.92;102351.78;10376510;28;20055;-67
2024/01/27 21:07:03;;;;;;;14.05;4.55;;;;;;;2.51;65.52;102357.25;10366641;28;20057;-67
2024/01/27 21:12:05;;;;;;;17.77;6.45;;;;;;;2.48;65.39;102347.63;10362871;28;20077;-67
2024/01/27 21:17:06;;;;;;;16.25;5.03;;;;;;;2.43;65.40;102351.44;10366889;28;20135;-67
2024/01/27 21:22:08;;;;;;;15.77;4.90;;;;;;;2.27;65.95;102357.50;10376833;28;20100;-67
2024/01/27 21:27:10;;;;;;;17.65;6.05;;;;;;;2.29;65.62;102360.06;10364897;28;20060;-67
2024/01/27 21:32:11;;;;;;;14.23;5.43;;;;;;;2.28;66.02;102358.34;10359788;28;20034;-67
2024/01/27 21:37:13;;;;;;;16.60;6.30;;;;;;;2.29;65.78;102346.78;10359290;28;20149;-67
2024/01/27 21:42:14;;;;;;;19.08;6.80;;;;;;;2.15;65.90;102335.06;10369648;28;20065;-67
2024/01/27 21:47:16;;;;;;;17.02;5.68;;;;;;;2.12;66.03;102335.19;10367613;28;20439;-67
2024/01/27 21:52:18;;;;;;;18.48;7.10;;;;;;;2.09;66.25;102331.81;10367447;28;20383;-67
2024/01/27 21:57:19;;;;;;;17.42;6.35;;;;;;;2.07;66.18;102329.22;10363114;28;20042;-67
2024/01/27 22:02:21;;;;;;;16.42;6.05;;;;;;;2.05;66.09;102324.94;10364071;28;20161;-67
2024/01/27 22:07:22;;;;;;;17.25;8.55;;;;;;;2.05;65.98;102332.88;10358649;28;20134;-68
2024/01/27 22:12:24;;;;;;;20.65;6.93;;;;;;;1.98;66.43;102324.38;10369980;28;20041;-67
2024/01/27 22:17:26;;;;;;;17.83;7.47;;;;;;;1.96;65.80;102319.13;10356558;28;20038;-67
2024/01/27 22:22:27;;;;;;;17.95;7.00;;;;;;;1.90;65.96;102321.22;10361797;28;20065;-67
2024/01/27 22:27:29;;;;;;;22.75;5.53;;;;;;;1.83;66.28;102322.41;10372126;28;20069;-67
2024/01/27 22:32:30;;;;;;;14.68;5.55;;;;;;;1.74;66.43;102321.06;10371574;28;20951;-67
2024/01/27 22:37:32;;;;;;;13.23;5.20;;;;;;;1.72;67.36;102318.47;10366073;28;20070;-67
2024/01/27 22:42:33;;;;;;;16.38;5.43;;;;;;;1.74;66.48;102319.25;10379341;28;20074;-66
2024/01/27 22:47:36;;;;;;;15.25;5.53;;;;;;;1.67;66.92;102331.06;10371784;28;20459;-65
2024/01/27 22:52:38;;;;;;;13.05;5.38;;;;;;;1.64;66.95;102325.91;10370901;28;20122;-65
2024/01/27 22:57:40;;;;;;;9.98;4.80;;;;;;;1.59;66.81;102331.41;10372864;28;20052;-66
2024/01/27 23:02:41;;;;;;;13.73;4.25;;;;;;;1.55;67.27;102324.53;10364970;28;20042;-67
2024/01/27 23:07:43;;;;;;;15.77;4.13;;;;;;;1.54;67.12;102328.13;10374996;28;20050;-66
2024/01/27 23:12:44;;;;;;;13.77;4.82;;;;;;;1.46;66.79;102317.00;10371216;28;20111;-66
2024/01/27 23:17:46;;;;;;;12.18;4.43;;;;;;;1.42;67.76;102315.41;10370101;28;20542;-65